Time,TemperatureF,DewpointF,PressureIn,WindDirection,WindDirectionDegrees,WindSpeedMPH,WindSpeedGustMPH,Humidity,HourlyPrecipIn,Conditions,Clouds,dailyrainin,SoftwareType,DateUTC
2014-01-03 00:05:00,27.3,18.1,30.41,WSW,239,8.0,18.0,68,0.00,,,0.00,Wunderground v.1.15,2014-01-03 07:05:00,
2014-01-03 00:15:00,27.1,17.2,30.42,WNW,283,8.0,8.0,66,0.00,,,0.00,Wunderground v.1.15,2014-01-03 07:15:00,
2014-01-03 00:20:00,27.0,17.1,30.42,West,259,7.0,13.0,66,0.00,,,0.00,Wunderground v.1.15,2014-01-03 07:20:00,
2014-01-03 00:25:00,26.8,17.0,30.43,South,187,9.0,9.0,66,0.00,,,0.00,Wunderground v.1.15,2014-01-03 07:25:00,
2014-01-03 00:30:00,26.5,16.7,30.43,WNW,301,7.0,9.0,66,0.00,,,0.00,Wunderground v.1.15,2014-01-03 07:30:00,
2014-01-03 00:35:00,26.0,16.5,30.43,WNW,285,4.0,4.0,67,0.00,,,0.00,Wunderground v.1.15,2014-01-03 07:35:00,
2014-01-03 00:44:00,25.7,16.6,30.43,West,281,5.0,5.0,68,0.00,,,0.00,Wunderground v.1.15,2014-01-03 07:44:00,
2014-01-03 00:49:00,25.5,16.1,30.43,West,259,9.0,9.0,67,0.00,,,0.00,Wunderground v.1.15,2014-01-03 07:49:00,
2014-01-03 00:54:00,25.4,16.0,30.42,West,271,12.0,14.0,67,0.00,,,0.00,Wunderground v.1.15,2014-01-03 07:54:00,
2014-01-03 01:04:00,25.1,15.7,30.42,West,277,13.0,13.0,67,0.00,,,0.00,Wunderground v.1.15,2014-01-03 08:04:00,
2014-01-03 01:09:00,24.9,15.5,30.42,West,274,15.0,15.0,67,0.00,,,0.00,Wunderground v.1.15,2014-01-03 08:09:00,
2014-01-03 01:19:00,24.8,15.7,30.41,West,277,16.0,25.0,68,0.00,,,0.00,Wunderground v.1.15,2014-01-03 08:19:00,
2014-01-03 01:24:00,25.0,15.9,30.41,WNW,283,16.0,16.0,68,0.00,,,0.00,Wunderground v.1.15,2014-01-03 08:24:00,
2014-01-03 01:29:00,25.1,16.0,30.39,West,259,15.0,17.0,68,0.00,,,0.00,Wunderground v.1.15,2014-01-03 08:29:00,
2014-01-03 01:34:00,25.3,16.2,30.40,West,274,17.0,21.0,68,0.00,,,0.00,Wunderground v.1.15,2014-01-03 08:34:00,
2014-01-03 01:39:00,25.3,16.2,30.40,WSW,258,18.0,21.0,68,0.00,,,0.00,Wunderground v.1.15,2014-01-03 08:39:00,
2014-01-03 01:49:00,25.3,16.2,30.40,WSW,256,18.0,18.0,68,0.00,,,0.00,Wunderground v.1.15,2014-01-03 08:49:00,
2014-01-03 01:54:00,25.3,16.2,30.40,West,260,18.0,18.0,68,0.00,,,0.00,Wunderground v.1.15,2014-01-03 08:54:00,
2014-01-03 02:00:00,25.4,16.3,30.40,West,269,19.0,20.0,68,0.00,,,0.00,Wunderground v.1.15,2014-01-03 09:00:00,
2014-01-03 02:09:00,25.4,16.3,30.38,WNW,285,19.0,20.0,68,0.00,,,0.00,Wunderground v.1.15,2014-01-03 09:09:00,
2014-01-03 02:14:00,25.1,16.0,30.38,WNW,288,18.0,23.0,68,0.00,,,0.00,Wunderground v.1.15,2014-01-03 09:14:00,
2014-01-03 02:24:00,24.9,16.2,30.39,West,273,16.0,16.0,69,0.00,,,0.00,Wunderground v.1.15,2014-01-03 09:24:00,
2014-01-03 02:29:00,25.0,16.3,30.38,WNW,293,14.0,16.0,69,0.00,,,0.00,Wunderground v.1.15,2014-01-03 09:29:00,
2014-01-03 02:34:00,25.4,16.6,30.38,NW,326,14.0,14.0,69,0.00,,,0.00,Wunderground v.1.15,2014-01-03 09:34:00,
2014-01-03 02:39:00,25.8,16.3,30.37,WNW,293,16.0,16.0,67,0.00,,,0.00,Wunderground v.1.15,2014-01-03 09:39:00,
2014-01-03 02:44:00,26.1,16.3,30.39,WNW,287,18.0,18.0,66,0.00,,,0.00,Wunderground v.1.15,2014-01-03 09:44:00,
2014-01-03 02:54:00,25.9,15.7,30.38,WNW,291,18.0,19.0,65,0.00,,,0.00,Wunderground v.1.15,2014-01-03 09:54:00,
2014-01-03 03:04:00,25.8,16.0,30.36,WNW,294,18.0,18.0,66,0.00,,,0.00,Wunderground v.1.15,2014-01-03 10:04:00,
2014-01-03 03:09:00,25.8,16.0,30.36,NW,305,19.0,19.0,66,0.00,,,0.00,Wunderground v.1.15,2014-01-03 10:09:00,
2014-01-03 03:14:00,25.6,15.8,30.36,WSW,246,18.0,19.0,66,0.00,,,0.00,Wunderground v.1.15,2014-01-03 10:14:00,
2014-01-03 03:19:00,25.5,15.7,30.35,WSW,252,18.0,23.0,66,0.00,,,0.00,Wunderground v.1.15,2014-01-03 10:19:00,
2014-01-03 03:29:00,25.2,15.4,30.34,WNW,297,16.0,16.0,66,0.00,,,0.00,Wunderground v.1.15,2014-01-03 10:29:00,
2014-01-03 03:34:00,25.3,15.5,30.34,WNW,294,18.0,18.0,66,0.00,,,0.00,Wunderground v.1.15,2014-01-03 10:34:00,
2014-01-03 03:39:00,25.3,15.5,30.32,WNW,300,17.0,17.0,66,0.00,,,0.00,Wunderground v.1.15,2014-01-03 10:39:00,
2014-01-03 03:44:00,25.2,15.1,30.31,West,263,15.0,17.0,65,0.00,,,0.00,Wunderground v.1.15,2014-01-03 10:44:00,
2014-01-03 03:49:00,25.1,15.3,30.31,WSW,243,16.0,16.0,66,0.00,,,0.00,Wunderground v.1.15,2014-01-03 10:49:00,
2014-01-03 04:00:00,25.4,15.3,30.33,WSW,245,22.0,28.0,65,0.00,,,0.00,Wunderground v.1.15,2014-01-03 11:00:00,
2014-01-03 04:09:00,25.1,15.0,30.34,WNW,287,18.0,18.0,65,0.00,,,0.00,Wunderground v.1.15,2014-01-03 11:09:00,
2014-01-03 04:14:00,25.0,15.2,30.33,WSW,252,19.0,19.0,66,0.00,,,0.00,Wunderground v.1.15,2014-01-03 11:14:00,
2014-01-03 04:19:00,24.8,15.0,30.33,WSW,246,17.0,17.0,66,0.00,,,0.00,Wunderground v.1.15,2014-01-03 11:19:00,
2014-01-03 04:24:00,24.5,14.8,30.32,WNW,302,15.0,17.0,66,0.00,,,0.00,Wunderground v.1.15,2014-01-03 11:24:00,
2014-01-03 04:34:00,24.0,14.6,30.31,WSW,241,14.0,19.0,67,0.00,,,0.00,Wunderground v.1.15,2014-01-03 11:34:00,
2014-01-03 04:39:00,23.9,14.9,30.30,WNW,296,12.0,12.0,68,0.00,,,0.00,Wunderground v.1.15,2014-01-03 11:39:00,
2014-01-03 04:44:00,23.9,14.9,30.30,West,262,9.0,12.0,68,0.00,,,0.00,Wunderground v.1.15,2014-01-03 11:44:00,
2014-01-03 04:49:00,24.0,15.0,30.29,WSW,242,9.0,9.0,68,0.00,,,0.00,Wunderground v.1.15,2014-01-03 11:49:00,
2014-01-03 04:54:00,24.1,15.1,30.28,ESE,117,10.0,10.0,68,0.00,,,0.00,Wunderground v.1.15,2014-01-03 11:54:00,
2014-01-03 05:05:00,24.2,15.2,30.27,WSW,240,10.0,10.0,68,0.00,,,0.00,Wunderground v.1.15,2014-01-03 12:05:00,
2014-01-03 05:10:00,24.2,15.2,30.26,WSW,248,10.0,10.0,68,0.00,,,0.00,Wunderground v.1.15,2014-01-03 12:10:00,
2014-01-03 05:15:00,24.3,15.3,30.27,WSW,242,9.0,18.0,68,0.00,,,0.00,Wunderground v.1.15,2014-01-03 12:15:00,
2014-01-03 05:20:00,24.2,15.2,30.27,WSW,252,8.0,18.0,68,0.00,,,0.00,Wunderground v.1.15,2014-01-03 12:20:00,
2014-01-03 05:25:00,24.2,15.2,30.27,SE,141,7.0,16.0,68,0.00,,,0.00,Wunderground v.1.15,2014-01-03 12:25:00,
2014-01-03 05:35:00,24.0,15.0,30.26,SSW,210,7.0,7.0,68,0.00,,,0.00,Wunderground v.1.15,2014-01-03 12:35:00,
2014-01-03 05:40:00,23.8,14.8,30.25,NE,54,4.0,8.0,68,0.00,,,0.00,Wunderground v.1.15,2014-01-03 12:40:00,
2014-01-03 05:45:00,24.0,15.0,30.24,West,274,5.0,23.0,68,0.00,,,0.00,Wunderground v.1.15,2014-01-03 12:45:00,
2014-01-03 05:50:00,24.6,15.2,30.23,SW,233,9.0,23.0,67,0.00,,,0.00,Wunderground v.1.15,2014-01-03 12:50:00,
2014-01-03 05:55:00,24.7,15.3,30.24,SSW,205,9.0,9.0,67,0.00,,,0.00,Wunderground v.1.15,2014-01-03 12:55:00,
2014-01-03 06:04:00,24.7,14.9,30.22,WSW,242,10.0,19.0,66,0.00,,,0.00,Wunderground v.1.15,2014-01-03 13:04:00,
2014-01-03 06:09:00,24.9,15.5,30.23,WNW,284,12.0,19.0,67,0.00,,,0.00,Wunderground v.1.15,2014-01-03 13:09:00,
2014-01-03 06:14:00,25.3,15.9,30.22,WSW,257,12.0,22.0,67,0.00,,,0.00,Wunderground v.1.15,2014-01-03 13:14:00,
2014-01-03 06:19:00,25.4,15.6,30.22,West,264,13.0,22.0,66,0.00,,,0.00,Wunderground v.1.15,2014-01-03 13:19:00,
2014-01-03 06:24:00,25.4,15.6,30.22,WNW,301,12.0,12.0,66,0.00,,,0.00,Wunderground v.1.15,2014-01-03 13:24:00,
2014-01-03 06:29:00,25.3,15.5,30.22,West,280,11.0,12.0,66,0.00,,,0.00,Wunderground v.1.15,2014-01-03 13:29:00,
2014-01-03 06:39:00,25.1,15.7,30.21,WSW,258,12.0,12.0,67,0.00,,,0.00,Wunderground v.1.15,2014-01-03 13:39:00,
2014-01-03 06:44:00,25.3,15.9,30.22,WSW,238,14.0,16.0,67,0.00,,,0.00,Wunderground v.1.15,2014-01-03 13:44:00,
2014-01-03 06:49:00,25.5,16.4,30.22,West,278,12.0,16.0,68,0.00,,,0.00,Wunderground v.1.15,2014-01-03 13:49:00,
2014-01-03 06:54:00,25.6,16.2,30.21,WSW,250,9.0,9.0,67,0.00,,,0.00,Wunderground v.1.15,2014-01-03 13:54:00,
2014-01-03 07:04:00,25.4,16.0,30.21,WSW,238,8.0,8.0,67,0.00,,,0.00,Wunderground v.1.15,2014-01-03 14:04:00,
2014-01-03 07:14:00,24.9,15.1,30.21,SSE,160,9.0,9.0,66,0.00,,,0.00,Wunderground v.1.15,2014-01-03 14:14:00,
2014-01-03 07:19:00,24.6,15.2,30.21,West,260,9.0,9.0,67,0.00,,,0.00,Wunderground v.1.15,2014-01-03 14:19:00,
2014-01-03 07:24:00,24.4,15.0,30.20,SSW,204,9.0,9.0,67,0.00,,,0.00,Wunderground v.1.15,2014-01-03 14:24:00,
2014-01-03 07:29:00,24.3,15.3,30.20,WSW,256,9.0,9.0,68,0.00,,,0.00,Wunderground v.1.15,2014-01-03 14:29:00,
2014-01-03 07:34:00,24.6,15.5,30.21,WSW,238,9.0,17.0,68,0.00,,,0.00,Wunderground v.1.15,2014-01-03 14:34:00,
2014-01-03 07:44:00,25.2,15.4,30.20,WSW,256,12.0,16.0,66,0.00,,,0.00,Wunderground v.1.15,2014-01-03 14:44:00,
2014-01-03 07:49:00,25.5,15.7,30.19,WSW,249,13.0,16.0,66,0.00,,,0.00,Wunderground v.1.15,2014-01-03 14:49:00,
2014-01-03 07:54:00,25.8,15.6,30.19,WSW,245,13.0,13.0,65,0.00,,,0.00,Wunderground v.1.15,2014-01-03 14:54:00,
2014-01-03 08:00:00,25.9,15.7,30.20,SW,226,11.0,18.0,65,0.00,,,0.00,Wunderground v.1.15,2014-01-03 15:00:00,
2014-01-03 08:09:00,25.8,15.6,30.20,WNW,288,13.0,18.0,65,0.00,,,0.00,Wunderground v.1.15,2014-01-03 15:09:00,
2014-01-03 08:19:00,26.7,16.1,30.20,WSW,250,11.0,13.0,64,0.00,,,0.00,Wunderground v.1.15,2014-01-03 15:19:00,
2014-01-03 08:24:00,27.1,16.2,30.20,South,177,10.0,10.0,63,0.00,,,0.00,Wunderground v.1.15,2014-01-03 15:24:00,
2014-01-03 08:29:00,27.4,16.1,30.18,SSW,203,11.0,11.0,62,0.00,,,0.00,Wunderground v.1.15,2014-01-03 15:29:00,
2014-01-03 08:34:00,27.6,16.3,30.19,South,187,11.0,13.0,62,0.00,,,0.00,Wunderground v.1.15,2014-01-03 15:34:00,
2014-01-03 08:39:00,27.6,16.3,30.19,WSW,255,10.0,13.0,62,0.00,,,0.00,Wunderground v.1.15,2014-01-03 15:39:00,
2014-01-03 08:45:00,27.5,16.2,30.18,South,170,12.0,12.0,62,0.00,,,0.00,Wunderground v.1.15,2014-01-03 15:45:00,
2014-01-03 08:50:00,27.5,15.8,30.17,South,190,12.0,12.0,61,0.00,,,0.00,Wunderground v.1.15,2014-01-03 15:50:00,
2014-01-03 08:55:00,27.7,16.0,30.17,SW,231,13.0,13.0,61,0.00,,,0.00,Wunderground v.1.15,2014-01-03 15:55:00,
2014-01-03 09:05:00,28.0,15.9,30.15,SW,218,12.0,12.0,60,0.00,,,0.00,Wunderground v.1.15,2014-01-03 16:05:00,
2014-01-03 09:10:00,27.9,15.8,30.16,WSW,243,14.0,17.0,60,0.00,,,0.00,Wunderground v.1.15,2014-01-03 16:10:00,
2014-01-03 09:19:00,28.0,15.5,30.15,SSE,156,15.0,16.0,59,0.00,,,0.00,Wunderground v.1.15,2014-01-03 16:19:00,
2014-01-03 09:24:00,28.2,15.7,30.15,SW,236,13.0,13.0,59,0.00,,,0.00,Wunderground v.1.15,2014-01-03 16:24:00,
2014-01-03 09:29:00,28.1,15.6,30.15,SW,226,13.0,13.0,59,0.00,,,0.00,Wunderground v.1.15,2014-01-03 16:29:00,
2014-01-03 09:34:00,27.7,14.8,30.14,SW,224,13.0,20.0,58,0.00,,,0.00,Wunderground v.1.15,2014-01-03 16:34:00,
2014-01-03 09:39:00,27.5,15.0,30.14,WNW,301,14.0,20.0,59,0.00,,,0.00,Wunderground v.1.15,2014-01-03 16:39:00,
2014-01-03 09:44:00,27.5,15.0,30.15,WNW,293,11.0,11.0,59,0.00,,,0.00,Wunderground v.1.15,2014-01-03 16:44:00,
2014-01-03 09:54:00,28.1,15.2,30.14,NNE,16,9.0,9.0,58,0.00,,,0.00,Wunderground v.1.15,2014-01-03 16:54:00,
2014-01-03 10:04:00,28.3,15.4,30.13,West,264,8.0,15.0,58,0.00,,,0.00,Wunderground v.1.15,2014-01-03 17:04:00,
2014-01-03 10:09:00,28.5,15.6,30.13,ENE,72,9.0,15.0,58,0.00,,,0.00,Wunderground v.1.15,2014-01-03 17:09:00,
2014-01-03 10:14:00,28.9,16.0,30.11,West,264,9.0,9.0,58,0.00,,,0.00,Wunderground v.1.15,2014-01-03 17:14:00,
2014-01-03 10:24:00,30.0,16.2,30.09,West,281,11.0,12.0,56,0.00,,,0.00,Wunderground v.1.15,2014-01-03 17:24:00,
2014-01-03 10:29:00,30.4,16.1,30.11,West,266,14.0,15.0,55,0.00,,,0.00,Wunderground v.1.15,2014-01-03 17:29:00,
2014-01-03 10:34:00,30.2,15.5,30.12,West,267,18.0,27.0,54,0.00,,,0.00,Wunderground v.1.15,2014-01-03 17:34:00,
2014-01-03 10:39:00,30.2,16.0,30.09,WSW,254,19.0,27.0,55,0.00,,,0.00,Wunderground v.1.15,2014-01-03 17:39:00,
2014-01-03 10:44:00,30.0,15.3,30.08,WSW,257,18.0,18.0,54,0.00,,,0.00,Wunderground v.1.15,2014-01-03 17:44:00,
2014-01-03 10:49:00,29.6,15.4,30.08,SW,225,17.0,18.0,55,0.00,,,0.00,Wunderground v.1.15,2014-01-03 17:49:00,
2014-01-03 11:04:00,30.5,15.8,30.07,SW,232,18.0,20.0,54,0.00,,,0.00,Wunderground v.1.15,2014-01-03 18:04:00,
2014-01-03 11:09:00,30.7,16.0,30.05,West,260,18.0,26.0,54,0.00,,,0.00,Wunderground v.1.15,2014-01-03 18:09:00,
2014-01-03 11:14:00,30.9,15.8,30.04,NW,307,19.0,30.0,53,0.00,,,0.00,Wunderground v.1.15,2014-01-03 18:14:00,
2014-01-03 11:19:00,31.0,16.3,30.03,NW,316,20.0,30.0,54,0.00,,,0.00,Wunderground v.1.15,2014-01-03 18:19:00,
2014-01-03 11:29:00,31.1,15.5,30.02,West,271,21.0,29.0,52,0.00,,,0.00,Wunderground v.1.15,2014-01-03 18:29:00,
2014-01-03 11:34:00,31.1,15.5,30.01,West,276,21.0,21.0,52,0.00,,,0.00,Wunderground v.1.15,2014-01-03 18:34:00,
2014-01-03 11:39:00,31.1,15.1,30.00,WNW,283,19.0,21.0,51,0.00,,,0.00,Wunderground v.1.15,2014-01-03 18:39:00,
2014-01-03 11:44:00,30.9,14.9,30.00,SW,232,18.0,18.0,51,0.00,,,0.00,Wunderground v.1.15,2014-01-03 18:44:00,
2014-01-03 11:49:00,30.7,14.2,29.99,WNW,289,17.0,19.0,50,0.00,,,0.00,Wunderground v.1.15,2014-01-03 18:49:00,
2014-01-03 11:54:00,30.4,14.0,29.99,WNW,298,18.0,20.0,50,0.00,,,0.00,Wunderground v.1.15,2014-01-03 18:54:00,
2014-01-03 12:05:00,30.0,13.1,29.99,West,280,15.0,15.0,49,0.00,,,0.00,Wunderground v.1.15,2014-01-03 19:05:00,
2014-01-03 12:10:00,29.8,13.4,29.98,West,278,17.0,29.0,50,0.00,,,0.00,Wunderground v.1.15,2014-01-03 19:10:00,
2014-01-03 12:15:00,29.6,13.2,29.96,WNW,297,19.0,27.0,50,0.00,,,0.00,Wunderground v.1.15,2014-01-03 19:15:00,
2014-01-03 12:20:00,29.7,13.3,29.95,NW,311,21.0,27.0,50,0.00,,,0.00,Wunderground v.1.15,2014-01-03 19:20:00,
2014-01-03 12:25:00,30.0,13.6,29.95,West,266,21.0,28.0,50,0.00,,,0.00,Wunderground v.1.15,2014-01-03 19:25:00,
2014-01-03 12:35:00,30.5,14.5,29.94,WNW,283,19.0,22.0,51,0.00,,,0.00,Wunderground v.1.15,2014-01-03 19:35:00,
2014-01-03 12:40:00,30.8,14.3,29.95,NW,310,17.0,22.0,50,0.00,,,0.00,Wunderground v.1.15,2014-01-03 19:40:00,
2014-01-03 12:45:00,31.0,15.0,29.93,West,277,17.0,17.0,51,0.00,,,0.00,Wunderground v.1.15,2014-01-03 19:45:00,
2014-01-03 12:50:00,31.1,15.5,29.93,West,269,17.0,18.0,52,0.00,,,0.00,Wunderground v.1.15,2014-01-03 19:50:00,
2014-01-03 12:55:00,31.0,14.5,29.93,West,260,16.0,16.0,50,0.00,,,0.00,Wunderground v.1.15,2014-01-03 19:55:00,
2014-01-03 13:04:00,31.0,15.0,29.92,WNW,290,20.0,21.0,51,0.00,,,0.00,Wunderground v.1.15,2014-01-03 20:04:00,
2014-01-03 13:09:00,31.1,15.1,29.92,WSW,239,19.0,21.0,51,0.00,,,0.00,Wunderground v.1.15,2014-01-03 20:09:00,
2014-01-03 13:14:00,31.2,15.2,29.90,West,279,19.0,19.0,51,0.00,,,0.00,Wunderground v.1.15,2014-01-03 20:14:00,
2014-01-03 13:19:00,31.2,15.6,29.89,West,274,17.0,19.0,52,0.00,,,0.00,Wunderground v.1.15,2014-01-03 20:19:00,
2014-01-03 13:24:00,31.3,15.2,29.88,NW,316,19.0,19.0,51,0.00,,,0.00,Wunderground v.1.15,2014-01-03 20:24:00,
2014-01-03 13:29:00,31.4,15.8,29.88,West,278,21.0,35.0,52,0.00,,,0.00,Wunderground v.1.15,2014-01-03 20:29:00,
2014-01-03 13:39:00,31.4,15.3,29.86,West,280,21.0,25.0,51,0.00,,,0.00,Wunderground v.1.15,2014-01-03 20:39:00,
2014-01-03 13:44:00,31.6,15.5,29.87,West,281,24.0,29.0,51,0.00,,,0.00,Wunderground v.1.15,2014-01-03 20:44:00,
2014-01-03 13:49:00,31.7,15.6,29.87,WNW,289,24.0,29.0,51,0.00,,,0.00,Wunderground v.1.15,2014-01-03 20:49:00,
2014-01-03 13:54:00,31.8,16.6,29.86,WNW,296,22.0,22.0,53,0.00,,,0.00,Wunderground v.1.15,2014-01-03 20:54:00,
2014-01-03 14:04:00,31.2,15.6,29.86,WNW,289,24.0,24.0,52,0.00,,,0.00,Wunderground v.1.15,2014-01-03 21:04:00,
2014-01-03 14:09:00,31.4,15.3,29.88,WNW,293,24.0,31.0,51,0.00,,,0.00,Wunderground v.1.15,2014-01-03 21:09:00,
2014-01-03 14:14:00,31.2,15.2,29.87,WNW,285,21.0,21.0,51,0.00,,,0.00,Wunderground v.1.15,2014-01-03 21:14:00,
2014-01-03 14:20:00,31.2,15.2,29.89,NW,314,20.0,20.0,51,0.00,,,0.00,Wunderground v.1.15,2014-01-03 21:20:00,